sensor_id;sensor_type;location;lat;lon;timestamp;pressure;altitude;pressure_sealevel;temperature;humidity
59787;BME280;45672;51.612;5.536;2023-04-08T00:00:13;102046.03;;;8.52;100.00
59787;BME280;45672;51.612;5.536;2023-04-08T00:02:38;102053.03;;;8.53;100.00
59787;BME280;45672;51.612;5.536;2023-04-08T00:05:04;102055.69;;;8.53;100.00
59787;BME280;45672;51.612;5.536;2023-04-08T00:07:29;102055.59;;;8.54;100.00
59787;BME280;45672;51.612;5.536;2023-04-08T00:09:55;102050.38;;;8.53;100.00
59787;BME280;45672;51.612;5.536;2023-04-08T00:12:20;102052.31;;;8.51;100.00
59787;BME280;45672;51.612;5.536;2023-04-08T00:14:46;102055.69;;;8.53;100.00
59787;BME280;45672;51.612;5.536;2023-04-08T00:17:11;102062.69;;;8.54;100.00
59787;BME280;45672;51.612;5.536;2023-04-08T00:19:36;102055.59;;;8.54;100.00
59787;BME280;45672;51.612;5.536;2023-04-08T00:22:02;102057.38;;;8.54;100.00
59787;BME280;45672;51.612;5.536;2023-04-08T00:24:27;102053.03;;;8.53;100.00
59787;BME280;45672;51.612;5.536;2023-04-08T00:26:52;102054.00;;;8.52;100.00
59787;BME280;45672;51.612;5.536;2023-04-08T00:29:17;102058.66;;;8.48;100.00
59787;BME280;45672;51.612;5.536;2023-04-08T00:31:43;102052.94;;;8.41;100.00
59787;BME280;45672;51.612;5.536;2023-04-08T00:34:08;102057.28;;;8.42;100.00
59787;BME280;45672;51.612;5.536;2023-04-08T00:36:33;102057.38;;;8.41;100.00
59787;BME280;45672;51.612;5.536;2023-04-08T00:39:00;102052.19;;;8.39;100.00
59787;BME280;45672;51.612;5.536;2023-04-08T00:41:26;102063.56;;;8.41;100.00
59787;BME280;45672;51.612;5.536;2023-04-08T00:43:51;102055.69;;;8.40;100.00
59787;BME280;45672;51.612;5.536;2023-04-08T00:46:17;102063.56;;;8.41;100.00
59787;BME280;45672;51.612;5.536;2023-04-08T00:48:42;102059.94;;;8.42;100.00
59787;BME280;45672;51.612;5.536;2023-04-08T00:51:08;102061.63;;;8.43;100.00
59787;BME280;45672;51.612;5.536;2023-04-08T00:53:33;102054.44;;;8.45;100.00
59787;BME280;45672;51.612;5.536;2023-04-08T00:55:58;102055.91;;;8.50;100.00
59787;BME280;45672;51.612;5.536;2023-04-08T00:58:25;102054.22;;;8.49;100.00
59787;BME280;45672;51.612;5.536;2023-04-08T01:00:57;102064.84;;;8.49;100.00
59787;BME280;45672;51.612;5.536;2023-04-08T01:04:04;102059.53;;;8.49;100.00
59787;BME280;45672;51.612;5.536;2023-04-08T01:09:20;102051.66;;;8.47;100.00
59787;BME280;45672;51.612;5.536;2023-04-08T01:11:48;102055.19;;;8.48;100.00
59787;BME280;45672;51.612;5.536;2023-04-08T01:14:19;102065.03;;;8.45;100.00
59787;BME280;45672;51.612;5.536;2023-04-08T01:16:46;102058.66;;;8.48;100.00
59787;BME280;45672;51.612;5.536;2023-04-08T01:19:17;102061.09;;;8.51;100.00
59787;BME280;45672;51.612;5.536;2023-04-08T01:21:47;102062.91;;;8.51;100.00
59787;BME280;45672;51.612;5.536;2023-04-08T01:24:27;102063.63;;;8.53;100.00
59787;BME280;45672;51.612;5.536;2023-04-08T01:26:54;102065.34;;;8.54;100.00
59787;BME280;45672;51.612;5.536;2023-04-08T01:29:21;102060.03;;;8.54;100.00
59787;BME280;45672;51.612;5.536;2023-04-08T01:31:48;102070.53;;;8.55;100.00
59787;BME280;45672;51.612;5.536;2023-04-08T01:34:14;102061.84;;;8.53;100.00
59787;BME280;45672;51.612;5.536;2023-04-08T01:36:43;102071.59;;;8.53;100.00
59787;BME280;45672;51.612;5.536;2023-04-08T01:39:10;102073.53;;;8.51;100.00
59787;BME280;45672;51.612;5.536;2023-04-08T01:41:36;102073.41;;;8.52;100.00
59787;BME280;45672;51.612;5.536;2023-04-08T01:44:03;102075.13;;;8.53;100.00
59787;BME280;45672;51.612;5.536;2023-04-08T01:46:29;102075.13;;;8.53;100.00
59787;BME280;45672;51.612;5.536;2023-04-08T01:48:56;102084.53;;;8.57;100.00
59787;BME280;45672;51.612;5.536;2023-04-08T01:51:22;102082.72;;;8.58;100.00
59787;BME280;45672;51.612;5.536;2023-04-08T01:53:48;102084.44;;;8.59;100.00
59787;BME280;45672;51.612;5.536;2023-04-08T01:56:14;102082.72;;;8.58;100.00
59787;BME280;45672;51.612;5.536;2023-04-08T01:58:42;102092.38;;;8.59;100.00
59787;BME280;45672;51.612;5.536;2023-04-08T02:01:13;102085.38;;;8.58;100.00
59787;BME280;45672;51.612;5.536;2023-04-08T02:03:43;102079.34;;;8.56;100.00
59787;BME280;45672;51.612;5.536;2023-04-08T02:06:09;102086.34;;;8.57;100.00
59787;BME280;45672;51.612;5.536;2023-04-08T02:08:35;102081.88;;;8.57;100.00
59787;BME280;45672;51.612;5.536;2023-04-08T02:11:01;102080.19;;;8.56;100.00
59787;BME280;45672;51.612;5.536;2023-04-08T02:13:28;102076.81;;;8.54;100.00
59787;BME280;45672;51.612;5.536;2023-04-08T02:15:56;102082.19;;;8.53;100.00
59787;BME280;45672;51.612;5.536;2023-04-08T02:18:27;102082.13;;;8.54;100.00
59787;BME280;45672;51.612;5.536;2023-04-08T02:20:57;102083.78;;;8.55;100.00
59787;BME280;45672;51.612;5.536;2023-04-08T02:23:26;102088.16;;;8.56;100.00
59787;BME280;45672;51.612;5.536;2023-04-08T02:25:54;102090.28;;;8.51;100.00
59787;BME280;45672;51.612;5.536;2023-04-08T02:28:20;102090.38;;;8.50;100.00
59787;BME280;45672;51.612;5.536;2023-04-08T02:30:49;102085.09;;;8.50;100.00
59787;BME280;45672;51.612;5.536;2023-04-08T02:33:17;102086.06;;;8.49;100.00
59787;BME280;45672;51.612;5.536;2023-04-08T02:35:43;102091.13;;;8.52;100.00
59787;BME280;45672;51.612;5.536;2023-04-08T02:38:09;102084.97;;;8.51;100.00
59787;BME280;45672;51.612;5.536;2023-04-08T02:40:35;102093.56;;;8.55;100.00
59787;BME280;45672;51.612;5.536;2023-04-08T02:43:01;102086.66;;;8.52;100.00
59787;BME280;45672;51.612;5.536;2023-04-08T02:45:30;102085.59;;;8.55;100.00
59787;BME280;45672;51.612;5.536;2023-04-08T02:47:56;102087.72;;;8.50;100.00
59787;BME280;45672;51.612;5.536;2023-04-08T02:50:22;102086.78;;;8.51;100.00
59787;BME280;45672;51.612;5.536;2023-04-08T02:52:47;102094.22;;;8.45;100.00
59787;BME280;45672;51.612;5.536;2023-04-08T02:55:12;102091.97;;;8.39;100.00
59787;BME280;45672;51.612;5.536;2023-04-08T02:57:39;102094.03;;;8.36;100.00
59787;BME280;45672;51.612;5.536;2023-04-08T03:00:05;102094.31;;;8.31;100.00
59787;BME280;45672;51.612;5.536;2023-04-08T03:02:31;102099.84;;;8.28;100.00
59787;BME280;45672;51.612;5.536;2023-04-08T03:04:56;102098.38;;;8.24;100.00
59787;BME280;45672;51.612;5.536;2023-04-08T03:07:22;102096.78;;;8.21;100.00
59787;BME280;45672;51.612;5.536;2023-04-08T03:09:47;102089.81;;;8.20;100.00
59787;BME280;45672;51.612;5.536;2023-04-08T03:12:12;102092.66;;;8.17;100.00
59787;BME280;45672;51.612;5.536;2023-04-08T03:14:37;102097.94;;;8.17;100.00
59787;BME280;45672;51.612;5.536;2023-04-08T03:17:03;102098.81;;;8.18;100.00
59787;BME280;45672;51.612;5.536;2023-04-08T03:19:28;102097.34;;;8.14;100.00
59787;BME280;45672;51.612;5.536;2023-04-08T03:21:53;102091.19;;;8.13;100.00
59787;BME280;45672;51.612;5.536;2023-04-08T03:24:19;102100.22;;;8.10;100.00
59787;BME280;45672;51.612;5.536;2023-04-08T03:26:44;102096.81;;;8.08;100.00
59787;BME280;45672;51.612;5.536;2023-04-08T03:29:09;102098.50;;;8.09;100.00
59787;BME280;45672;51.612;5.536;2023-04-08T03:31:34;102086.09;;;8.10;100.00
59787;BME280;45672;51.612;5.536;2023-04-08T03:34:00;102089.50;;;8.12;100.00
59787;BME280;45672;51.612;5.536;2023-04-08T03:36:25;102097.56;;;8.10;100.00
59787;BME280;45672;51.612;5.536;2023-04-08T03:38:51;102093.09;;;8.11;100.00
59787;BME280;45672;51.612;5.536;2023-04-08T03:41:16;102102.75;;;8.12;100.00
59787;BME280;45672;51.612;5.536;2023-04-08T03:43:41;102094.91;;;8.10;100.00
59787;BME280;45672;51.612;5.536;2023-04-08T03:46:06;102106.34;;;8.11;100.00
59787;BME280;45672;51.612;5.536;2023-04-08T03:48:32;102104.63;;;8.10;100.00
59787;BME280;45672;51.612;5.536;2023-04-08T03:50:57;102107.28;;;8.10;100.00
59787;BME280;45672;51.612;5.536;2023-04-08T03:53:22;102099.66;;;8.05;100.00
59787;BME280;45672;51.612;5.536;2023-04-08T03:55:48;102110.28;;;8.05;100.00
59787;BME280;45672;51.612;5.536;2023-04-08T03:58:15;102109.78;;;8.00;100.00
59787;BME280;45672;51.612;5.536;2023-04-08T04:00:40;102111.13;;;7.93;100.00
59787;BME280;45672;51.612;5.536;2023-04-08T04:03:05;102110.16;;;7.94;100.00
59787;BME280;45672;51.612;5.536;2023-04-08T04:05:31;102110.16;;;7.94;100.00
59787;BME280;45672;51.612;5.536;2023-04-08T04:07:56;102100.97;;;7.87;100.00
59787;BME280;45672;51.612;5.536;2023-04-08T04:10:22;102112.50;;;7.86;100.00
59787;BME280;45672;51.612;5.536;2023-04-08T04:12:48;102116.84;;;7.87;100.00
59787;BME280;45672;51.612;5.536;2023-04-08T04:15:14;102114.09;;;7.88;100.00
59787;BME280;45672;51.612;5.536;2023-04-08T04:17:39;102121.31;;;7.86;100.00
59787;BME280;45672;51.612;5.536;2023-04-08T04:20:05;102117.19;;;7.82;100.00
59787;BME280;45672;51.612;5.536;2023-04-08T04:22:31;102120.66;;;7.83;100.00
59787;BME280;45672;51.612;5.536;2023-04-08T04:24:56;102132.31;;;7.80;100.00
59787;BME280;45672;51.612;5.536;2023-04-08T04:27:21;102133.41;;;7.78;100.00
59787;BME280;45672;51.612;5.536;2023-04-08T04:29:46;102133.69;;;7.73;100.00
59787;BME280;45672;51.612;5.536;2023-04-08T04:32:12;102143.56;;;7.71;100.00
59787;BME280;45672;51.612;5.536;2023-04-08T04:34:37;102142.81;;;7.69;100.00
59787;BME280;45672;51.612;5.536;2023-04-08T04:37:02;102145.75;;;7.64;100.00
59787;BME280;45672;51.612;5.536;2023-04-08T04:39:28;102146.72;;;7.63;100.00
59787;BME280;45672;51.612;5.536;2023-04-08T04:41:53;102146.94;;;7.60;100.00
59787;BME280;45672;51.612;5.536;2023-04-08T04:44:18;102148.84;;;7.58;100.00
59787;BME280;45672;51.612;5.536;2023-04-08T04:46:44;102156.22;;;7.53;100.00
59787;BME280;45672;51.612;5.536;2023-04-08T04:49:09;102159.09;;;7.50;100.00
59787;BME280;45672;51.612;5.536;2023-04-08T04:51:34;102164.28;;;7.51;100.00
59787;BME280;45672;51.612;5.536;2023-04-08T04:54:00;102158.88;;;7.53;100.00
59787;BME280;45672;51.612;5.536;2023-04-08T04:56:25;102163.44;;;7.51;100.00
59787;BME280;45672;51.612;5.536;2023-04-08T04:58:51;102167.50;;;7.56;100.00
59787;BME280;45672;51.612;5.536;2023-04-08T05:01:17;102167.38;;;7.58;100.00
59787;BME280;45672;51.612;5.536;2023-04-08T05:03:42;102168.13;;;7.60;100.00
59787;BME280;45672;51.612;5.536;2023-04-08T05:06:07;102165.06;;;7.66;100.00
59787;BME280;45672;51.612;5.536;2023-04-08T05:08:33;102178.00;;;7.71;100.00
59787;BME280;45672;51.612;5.536;2023-04-08T05:10:58;102161.16;;;7.72;100.00
59787;BME280;45672;51.612;5.536;2023-04-08T05:13:29;102174.94;;;7.77;100.00
59787;BME280;45672;51.612;5.536;2023-04-08T05:15:54;102175.59;;;7.81;100.00
59787;BME280;45672;51.612;5.536;2023-04-08T05:18:19;102185.97;;;7.84;100.00
59787;BME280;45672;51.612;5.536;2023-04-08T05:20:45;102182.16;;;7.88;100.00
59787;BME280;45672;51.612;5.536;2023-04-08T05:23:10;102183.09;;;7.87;100.00
59787;BME280;45672;51.612;5.536;2023-04-08T05:25:36;102191.72;;;7.90;100.00
59787;BME280;45672;51.612;5.536;2023-04-08T05:28:02;102181.94;;;7.91;100.00
59787;BME280;45672;51.612;5.536;2023-04-08T05:30:27;102186.09;;;7.95;100.00
59787;BME280;45672;51.612;5.536;2023-04-08T05:32:53;102200.06;;;7.97;100.00
59787;BME280;45672;51.612;5.536;2023-04-08T05:35:18;102186.09;;;7.95;100.00
59787;BME280;45672;51.612;5.536;2023-04-08T05:37:43;102193.59;;;8.01;100.00
59787;BME280;45672;51.612;5.536;2023-04-08T05:40:09;102197.41;;;7.97;100.00
59787;BME280;45672;51.612;5.536;2023-04-08T05:42:34;102195.31;;;7.89;100.00
59787;BME280;45672;51.612;5.536;2023-04-08T05:45:00;102201.66;;;7.87;100.00
59787;BME280;45672;51.612;5.536;2023-04-08T05:47:25;102198.38;;;7.83;100.00
59787;BME280;45672;51.612;5.536;2023-04-08T05:49:50;102195.50;;;7.86;100.00
59787;BME280;45672;51.612;5.536;2023-04-08T05:52:16;102203.25;;;7.89;100.00
59787;BME280;45672;51.612;5.536;2023-04-08T05:54:42;102202.19;;;7.92;100.00
59787;BME280;45672;51.612;5.536;2023-04-08T05:57:07;102201.22;;;7.93;100.00
59787;BME280;45672;51.612;5.536;2023-04-08T05:59:33;102210.03;;;7.93;100.00
59787;BME280;45672;51.612;5.536;2023-04-08T06:01:58;102214.59;;;7.91;100.00
59787;BME280;45672;51.612;5.536;2023-04-08T06:04:23;102212.81;;;7.92;100.00
59787;BME280;45672;51.612;5.536;2023-04-08T06:06:49;102219.59;;;7.96;100.00
59787;BME280;45672;51.612;5.536;2023-04-08T06:09:14;102220.31;;;7.98;100.00
59787;BME280;45672;51.612;5.536;2023-04-08T06:11:39;102229.66;;;7.91;100.00
59787;BME280;45672;51.612;5.536;2023-04-08T06:14:05;102226.06;;;7.92;100.00
59787;BME280;45672;51.612;5.536;2023-04-08T06:16:30;102224.56;;;7.88;100.00
59787;BME280;45672;51.612;5.536;2023-04-08T06:18:55;102229.41;;;7.81;100.00
59787;BME280;45672;51.612;5.536;2023-04-08T06:21:21;102232.06;;;7.81;100.00
59787;BME280;45672;51.612;5.536;2023-04-08T06:23:46;102221.34;;;7.83;100.00
59787;BME280;45672;51.612;5.536;2023-04-08T06:26:11;102222.00;;;7.86;100.00
59787;BME280;45672;51.612;5.536;2023-04-08T06:28:37;102230.38;;;7.93;100.00
59787;BME280;45672;51.612;5.536;2023-04-08T06:31:03;102235.69;;;7.93;100.00
59787;BME280;45672;51.612;5.536;2023-04-08T06:33:28;102238.34;;;7.93;100.00
59787;BME280;45672;51.612;5.536;2023-04-08T06:36:06;102234.94;;;7.91;100.00
59787;BME280;45672;51.612;5.536;2023-04-08T06:38:32;102247.03;;;7.82;100.00
59787;BME280;45672;51.612;5.536;2023-04-08T06:41:15;102250.72;;;7.80;100.00
59787;BME280;45672;51.612;5.536;2023-04-08T06:43:41;102254.50;;;7.75;100.00
59787;BME280;45672;51.612;5.536;2023-04-08T06:46:06;102259.72;;;7.77;100.00
59787;BME280;45672;51.612;5.536;2023-04-08T06:48:31;102258.66;;;7.80;100.00
59787;BME280;45672;51.612;5.536;2023-04-08T06:50:58;102260.16;;;7.84;100.00
59787;BME280;45672;51.612;5.536;2023-04-08T06:53:24;102263.03;;;7.81;100.00
59787;BME280;45672;51.612;5.536;2023-04-08T06:55:50;102263.97;;;7.80;100.00
59787;BME280;45672;51.612;5.536;2023-04-08T06:58:15;102272.34;;;7.73;100.00
59787;BME280;45672;51.612;5.536;2023-04-08T07:00:41;102275.25;;;7.69;100.00
59787;BME280;45672;51.612;5.536;2023-04-08T07:03:06;102274.09;;;7.73;100.00
59787;BME280;45672;51.612;5.536;2023-04-08T07:05:31;102279.88;;;7.80;100.00
59787;BME280;45672;51.612;5.536;2023-04-08T07:07:59;102276.91;;;7.84;100.00
59787;BME280;45672;51.612;5.536;2023-04-08T07:10:24;102286.25;;;7.90;100.00
59787;BME280;45672;51.612;5.536;2023-04-08T07:12:50;102287.41;;;7.86;100.00
59787;BME280;45672;51.612;5.536;2023-04-08T07:15:16;102288.53;;;7.82;100.00
59787;BME280;45672;51.612;5.536;2023-04-08T07:17:41;102292.38;;;7.78;100.00
59787;BME280;45672;51.612;5.536;2023-04-08T07:20:07;102294.94;;;7.79;100.00
59787;BME280;45672;51.612;5.536;2023-04-08T07:22:32;102298.31;;;7.81;100.00
59787;BME280;45672;51.612;5.536;2023-04-08T07:24:58;102301.63;;;7.85;100.00
59787;BME280;45672;51.612;5.536;2023-04-08T07:27:23;102299.69;;;7.87;100.00
59787;BME280;45672;51.612;5.536;2023-04-08T07:29:52;102309.47;;;7.86;100.00
59787;BME280;45672;51.612;5.536;2023-04-08T07:32:18;102307.34;;;7.91;100.00
59787;BME280;45672;51.612;5.536;2023-04-08T07:34:43;102315.75;;;7.98;100.00
59787;BME280;45672;51.612;5.536;2023-04-08T07:37:08;102308.84;;;7.96;100.00
59787;BME280;45672;51.612;5.536;2023-04-08T07:39:34;102311.38;;;7.97;100.00
59787;BME280;45672;51.612;5.536;2023-04-08T07:41:59;102310.03;;;8.04;100.00
59787;BME280;45672;51.612;5.536;2023-04-08T07:44:25;102314.94;;;8.10;100.00
59787;BME280;45672;51.612;5.536;2023-04-08T07:46:50;102307.50;;;8.16;100.00
59787;BME280;45672;51.612;5.536;2023-04-08T07:49:16;102322.16;;;8.21;100.00
59787;BME280;45672;51.612;5.536;2023-04-08T07:51:41;102326.81;;;8.18;100.00
59787;BME280;45672;51.612;5.536;2023-04-08T07:54:07;102321.75;;;8.15;100.00
59787;BME280;45672;51.612;5.536;2023-04-08T07:56:32;102334.13;;;8.14;100.00
59787;BME280;45672;51.612;5.536;2023-04-08T07:58:57;102325.53;;;8.10;100.00
59787;BME280;45672;51.612;5.536;2023-04-08T08:01:22;102324.50;;;8.13;100.00
59787;BME280;45672;51.612;5.536;2023-04-08T08:03:49;102324.25;;;8.03;100.00
59787;BME280;45672;51.612;5.536;2023-04-08T08:06:15;102329.63;;;7.89;100.00
59787;BME280;45672;51.612;5.536;2023-04-08T08:08:40;102334.91;;;7.89;100.00
59787;BME280;45672;51.612;5.536;2023-04-08T08:11:05;102331.53;;;8.00;100.00
59787;BME280;45672;51.612;5.536;2023-04-08T08:13:32;102338.03;;;8.08;100.00
59787;BME280;45672;51.612;5.536;2023-04-08T08:15:57;102330.50;;;8.02;100.00
59787;BME280;45672;51.612;5.536;2023-04-08T08:18:22;102333.06;;;8.17;100.00
59787;BME280;45672;51.612;5.536;2023-04-08T08:20:48;102333.75;;;8.33;100.00
59787;BME280;45672;51.612;5.536;2023-04-08T08:23:13;102339.28;;;8.43;100.00
59787;BME280;45672;51.612;5.536;2023-04-08T08:25:38;102337.59;;;8.42;100.00
59787;BME280;45672;51.612;5.536;2023-04-08T08:28:03;102350.84;;;8.42;100.00
59787;BME280;45672;51.612;5.536;2023-04-08T08:30:29;102345.16;;;8.48;100.00
59787;BME280;45672;51.612;5.536;2023-04-08T08:32:54;102347.91;;;8.59;100.00
59787;BME280;45672;51.612;5.536;2023-04-08T08:35:23;102348.34;;;8.66;100.00
59787;BME280;45672;51.612;5.536;2023-04-08T08:37:48;102357.06;;;8.68;100.00
59787;BME280;45672;51.612;5.536;2023-04-08T08:40:14;102355.47;;;8.78;100.00
59787;BME280;45672;51.612;5.536;2023-04-08T08:42:40;102368.09;;;8.88;100.00
59787;BME280;45672;51.612;5.536;2023-04-08T08:45:06;102372.25;;;8.92;100.00
59787;BME280;45672;51.612;5.536;2023-04-08T08:47:32;102369.16;;;8.98;100.00
59787;BME280;45672;51.612;5.536;2023-04-08T08:49:57;102371.63;;;9.01;100.00
59787;BME280;45672;51.612;5.536;2023-04-08T08:52:23;102374.16;;;9.03;100.00
59787;BME280;45672;51.612;5.536;2023-04-08T08:54:56;102375.72;;;9.05;100.00
59787;BME280;45672;51.612;5.536;2023-04-08T08:57:21;102377.66;;;9.03;100.00
59787;BME280;45672;51.612;5.536;2023-04-08T08:59:47;102379.03;;;8.96;100.00
59787;BME280;45672;51.612;5.536;2023-04-08T09:02:29;102382.13;;;8.90;100.00
59787;BME280;45672;51.612;5.536;2023-04-08T09:05:00;102381.91;;;8.93;100.00
59787;BME280;45672;51.612;5.536;2023-04-08T09:07:27;102379.25;;;8.93;100.00
59787;BME280;45672;51.612;5.536;2023-04-08T09:09:54;102385.06;;;8.98;100.00
59787;BME280;45672;51.612;5.536;2023-04-08T09:12:20;102392.09;;;9.12;100.00
59787;BME280;45672;51.612;5.536;2023-04-08T09:14:45;102392.31;;;9.22;100.00
59787;BME280;45672;51.612;5.536;2023-04-08T09:17:11;102385.06;;;9.37;100.00
59787;BME280;45672;51.612;5.536;2023-04-08T09:19:36;102394.06;;;9.47;100.00
59787;BME280;45672;51.612;5.536;2023-04-08T09:22:10;102390.84;;;9.55;100.00
59787;BME280;45672;51.612;5.536;2023-04-08T09:24:36;102389.50;;;9.49;100.00
59787;BME280;45672;51.612;5.536;2023-04-08T09:27:03;102388.72;;;9.60;100.00
59787;BME280;45672;51.612;5.536;2023-04-08T09:29:28;102398.56;;;9.71;100.00
59787;BME280;45672;51.612;5.536;2023-04-08T09:31:56;102381.84;;;9.44;100.00
59787;BME280;45672;51.612;5.536;2023-04-08T09:34:21;102393.97;;;9.48;100.00
59787;BME280;45672;51.612;5.536;2023-04-08T09:36:51;102400.72;;;9.65;100.00
59787;BME280;45672;51.612;5.536;2023-04-08T09:39:17;102401.09;;;9.85;100.00
59787;BME280;45672;51.612;5.536;2023-04-08T09:41:43;102401.59;;;10.14;100.00
59787;BME280;45672;51.612;5.536;2023-04-08T09:44:11;102409.69;;;10.37;100.00
59787;BME280;45672;51.612;5.536;2023-04-08T09:49:34;102420.34;;;10.73;100.00
59787;BME280;45672;51.612;5.536;2023-04-08T09:54:54;102427.44;;;10.61;100.00
59787;BME280;45672;51.612;5.536;2023-04-08T10:00:23;102428.81;;;10.18;100.00
59787;BME280;45672;51.612;5.536;2023-04-08T10:03:01;102426.66;;;9.99;100.00
59787;BME280;45672;51.612;5.536;2023-04-08T10:05:30;102416.34;;;9.94;100.00
59787;BME280;45672;51.612;5.536;2023-04-08T10:07:57;102420.69;;;10.08;100.00
59787;BME280;45672;51.612;5.536;2023-04-08T10:10:23;102422.09;;;10.25;100.00
59787;BME280;45672;51.612;5.536;2023-04-08T10:12:50;102420.72;;;10.20;100.00
59787;BME280;45672;51.612;5.536;2023-04-08T10:15:23;102417.16;;;10.32;100.00
59787;BME280;45672;51.612;5.536;2023-04-08T10:23:05;102409.25;;;11.13;99.86
59787;BME280;45672;51.612;5.536;2023-04-08T10:25:38;102419.56;;;11.63;98.36
59787;BME280;45672;51.612;5.536;2023-04-08T10:30:45;102418.66;;;11.96;95.71
59787;BME280;45672;51.612;5.536;2023-04-08T10:33:14;102415.13;;;12.07;93.10
59787;BME280;45672;51.612;5.536;2023-04-08T10:35:47;102408.31;;;12.14;90.82
59787;BME280;45672;51.612;5.536;2023-04-08T10:38:13;102404.59;;;12.59;92.05
59787;BME280;45672;51.612;5.536;2023-04-08T10:40:40;102407.56;;;12.87;86.82
59787;BME280;45672;51.612;5.536;2023-04-08T10:43:08;102399.03;;;12.72;86.90
59787;BME280;45672;51.612;5.536;2023-04-08T10:45:33;102396.06;;;12.44;87.92
59787;BME280;45672;51.612;5.536;2023-04-08T10:48:15;102393.88;;;12.17;90.26
59787;BME280;45672;51.612;5.536;2023-04-08T10:50:42;102395.72;;;12.05;96.11
59787;BME280;45672;51.612;5.536;2023-04-08T10:53:07;102394.22;;;11.68;91.71
59787;BME280;45672;51.612;5.536;2023-04-08T10:55:33;102386.97;;;11.59;93.29
59787;BME280;45672;51.612;5.536;2023-04-08T10:58:08;102385.97;;;11.71;94.23
59787;BME280;45672;51.612;5.536;2023-04-08T11:00:37;102388.84;;;11.91;93.84
59787;BME280;45672;51.612;5.536;2023-04-08T11:03:07;102388.19;;;12.10;91.39
59787;BME280;45672;51.612;5.536;2023-04-08T11:05:34;102396.28;;;12.20;90.47
59787;BME280;45672;51.612;5.536;2023-04-08T11:08:00;102391.44;;;12.14;87.50
59787;BME280;45672;51.612;5.536;2023-04-08T11:10:26;102393.97;;;11.94;89.24
59787;BME280;45672;51.612;5.536;2023-04-08T11:12:53;102397.19;;;11.86;88.83
59787;BME280;45672;51.612;5.536;2023-04-08T11:15:20;102398.25;;;11.63;88.09
59787;BME280;45672;51.612;5.536;2023-04-08T11:17:46;102408.91;;;11.51;86.76
59787;BME280;45672;51.612;5.536;2023-04-08T11:20:12;102397.53;;;11.38;89.44
59787;BME280;45672;51.612;5.536;2023-04-08T11:22:38;102397.41;;;11.28;88.05
59787;BME280;45672;51.612;5.536;2023-04-08T11:25:04;102395.81;;;11.26;92.34
59787;BME280;45672;51.612;5.536;2023-04-08T11:27:33;102394.72;;;11.39;91.69
59787;BME280;45672;51.612;5.536;2023-04-08T11:29:58;102392.44;;;11.46;90.01
59787;BME280;45672;51.612;5.536;2023-04-08T11:32:24;102399.09;;;11.41;89.46
59787;BME280;45672;51.612;5.536;2023-04-08T11:34:49;102386.38;;;11.44;87.97
59787;BME280;45672;51.612;5.536;2023-04-08T11:37:15;102394.25;;;11.46;88.43
59787;BME280;45672;51.612;5.536;2023-04-08T11:39:45;102401.38;;;11.45;89.99
59787;BME280;45672;51.612;5.536;2023-04-08T11:42:30;102370.03;;;11.49;92.08
59787;BME280;45672;51.612;5.536;2023-04-08T11:44:55;102386.31;;;11.67;90.03
59787;BME280;45672;51.612;5.536;2023-04-08T11:47:20;102381.97;;;11.77;89.85
59787;BME280;45672;51.612;5.536;2023-04-08T11:49:47;102382.41;;;11.94;88.16
59787;BME280;45672;51.612;5.536;2023-04-08T11:52:12;102377.56;;;11.87;85.05
59787;BME280;45672;51.612;5.536;2023-04-08T11:54:41;102377.56;;;11.87;87.90
59787;BME280;45672;51.612;5.536;2023-04-08T11:57:08;102381.41;;;12.06;88.80
59787;BME280;45672;51.612;5.536;2023-04-08T11:59:36;102377.59;;;12.20;87.13
59787;BME280;45672;51.612;5.536;2023-04-08T12:02:02;102373.66;;;12.35;87.77
59787;BME280;45672;51.612;5.536;2023-04-08T12:04:27;102380.13;;;12.54;86.99
59787;BME280;45672;51.612;5.536;2023-04-08T12:06:54;102375.75;;;12.53;83.34
59787;BME280;45672;51.612;5.536;2023-04-08T12:09:19;102384.09;;;12.59;85.85
59787;BME280;45672;51.612;5.536;2023-04-08T12:11:44;102376.25;;;12.68;86.00
59787;BME280;45672;51.612;5.536;2023-04-08T12:14:10;102375.72;;;12.74;84.69
59787;BME280;45672;51.612;5.536;2023-04-08T12:16:36;102377.69;;;12.72;80.81
59787;BME280;45672;51.612;5.536;2023-04-08T12:19:01;102372.59;;;12.69;80.15
59787;BME280;45672;51.612;5.536;2023-04-08T12:21:26;102371.50;;;12.71;80.53
59787;BME280;45672;51.612;5.536;2023-04-08T12:23:52;102376.00;;;12.71;80.57
59787;BME280;45672;51.612;5.536;2023-04-08T12:26:17;102370.88;;;12.89;81.00
59787;BME280;45672;51.612;5.536;2023-04-08T12:28:44;102372.59;;;13.21;81.37
59787;BME280;45672;51.612;5.536;2023-04-08T12:31:10;102350.44;;;13.40;78.76
59787;BME280;45672;51.612;5.536;2023-04-08T12:33:35;102372.78;;;13.99;77.36
59787;BME280;45672;51.612;5.536;2023-04-08T12:36:00;102373.34;;;14.32;73.26
59787;BME280;45672;51.612;5.536;2023-04-08T12:38:26;102369.78;;;14.61;72.24
59787;BME280;45672;51.612;5.536;2023-04-08T12:40:51;102364.72;;;14.68;70.83
59787;BME280;45672;51.612;5.536;2023-04-08T12:43:17;102366.00;;;14.63;69.14
59787;BME280;45672;51.612;5.536;2023-04-08T12:45:42;102358.66;;;14.56;70.78
59787;BME280;45672;51.612;5.536;2023-04-08T12:48:08;102350.66;;;14.65;67.31
59787;BME280;45672;51.612;5.536;2023-04-08T12:50:33;102353.59;;;14.53;67.75
59787;BME280;45672;51.612;5.536;2023-04-08T12:52:59;102349.09;;;14.43;70.87
59787;BME280;45672;51.612;5.536;2023-04-08T12:55:24;102357.00;;;14.35;70.17
59787;BME280;45672;51.612;5.536;2023-04-08T12:57:51;102353.06;;;14.29;68.01
59787;BME280;45672;51.612;5.536;2023-04-08T13:00:16;102354.06;;;14.09;71.02
59787;BME280;45672;51.612;5.536;2023-04-08T13:02:42;102349.81;;;14.26;70.43
59787;BME280;45672;51.612;5.536;2023-04-08T13:05:08;102345.69;;;14.51;69.97